Time;durP1;ratioP1;P1;durP2;ratioP2;P2;SDS_P1;SDS_P2;PMS_P1;PMS_P2;Temp;Humidity;BMP_temperature;BMP_pressure;BME280_temperature;BME280_humidity;BME280_pressure;Samples;Min_cycle;Max_cycle;Signal;HPM_P1;HPM_P2
2023/04/18 00:01:57;;;;;;;4.93;4.40;;;12.60;90.60;;;;;;5021748;28;20543;-67
2023/04/18 00:04:26;;;;;;;5.00;4.57;;;12.60;90.70;;;;;;5006127;28;20448;-67
2023/04/18 00:06:56;;;;;;;4.50;4.10;;;12.60;90.70;;;;;;5006178;28;20936;-66
2023/04/18 00:09:24;;;;;;;4.60;4.20;;;12.60;90.60;;;;;;5005389;28;20509;-66
2023/04/18 00:11:52;;;;;;;5.50;5.00;;;12.60;90.70;;;;;;5020948;28;20575;-66
2023/04/18 00:14:21;;;;;;;4.43;4.03;;;12.60;90.70;;;;;;5023021;28;20451;-67
2023/04/18 00:16:50;;;;;;;5.30;4.80;;;12.60;90.70;;;;;;5014761;28;20488;-67
2023/04/18 00:19:19;;;;;;;4.53;4.10;;;12.60;90.70;;;;;;5022668;28;20448;-67
2023/04/18 00:21:48;;;;;;;4.40;4.00;;;12.60;90.70;;;;;;5023167;28;21160;-67
2023/04/18 00:24:18;;;;;;;5.70;5.20;;;12.60;90.70;;;;;;5020224;28;20949;-65
2023/04/18 00:26:47;;;;;;;4.90;4.40;;;12.60;90.60;;;;;;5022780;28;20467;-65
2023/04/18 00:29:16;;;;;;;4.77;4.33;;;12.60;90.70;;;;;;5002205;28;20449;-65
2023/04/18 00:31:44;;;;;;;6.00;4.70;;;12.60;90.80;;;;;;5006912;28;20475;-66
2023/04/18 00:34:12;;;;;;;6.00;5.40;;;12.60;90.80;;;;;;5022907;28;20956;-66
2023/04/18 00:36:41;;;;;;;5.30;4.53;;;12.60;90.60;;;;;;5005741;28;20866;-67
2023/04/18 00:39:10;;;;;;;5.40;4.60;;;12.60;90.60;;;;;;5006228;28;20984;-67
2023/04/18 00:41:40;;;;;;;5.77;5.20;;;12.60;90.40;;;;;;5022189;28;20480;-67
2023/04/18 00:44:08;;;;;;;5.80;5.20;;;12.60;90.10;;;;;;5017478;28;20495;-66
2023/04/18 00:46:36;;;;;;;6.67;4.90;;;12.50;89.90;;;;;;5005816;28;20468;-65
2023/04/18 00:49:05;;;;;;;9.63;6.20;;;12.50;90.00;;;;;;5021735;28;20437;-65
2023/04/18 00:51:34;;;;;;;7.43;6.10;;;12.50;90.20;;;;;;5021570;28;20476;-66
2023/04/18 00:54:03;;;;;;;6.30;5.50;;;12.50;88.90;;;;;;5000907;28;20533;-66
2023/04/18 00:56:32;;;;;;;7.80;4.83;;;12.50;88.90;;;;;;5012264;28;20870;-66
2023/04/18 00:59:02;;;;;;;5.57;5.03;;;12.50;88.40;;;;;;4998221;28;20486;-66
2023/04/18 01:01:32;;;;;;;6.90;5.17;;;12.50;88.40;;;;;;5018621;28;20569;-66
2023/04/18 01:04:01;;;;;;;7.50;5.43;;;12.50;88.70;;;;;;5000775;28;20444;-66
2023/04/18 01:06:30;;;;;;;5.87;5.10;;;12.50;88.50;;;;;;5021474;28;20574;-65
2023/04/18 01:08:58;;;;;;;6.10;5.50;;;12.50;88.50;;;;;;5022600;28;20445;-66
2023/04/18 01:11:27;;;;;;;5.53;4.53;;;12.50;88.50;;;;;;5020535;28;21046;-67
2023/04/18 01:14:00;;;;;;;5.50;5.00;;;12.50;88.70;;;;;;5002684;28;20460;-66
2023/04/18 01:16:32;;;;;;;5.67;5.17;;;12.50;88.20;;;;;;5001628;28;20492;-65
2023/04/18 01:19:00;;;;;;;6.93;5.23;;;12.50;88.80;;;;;;5005942;28;20783;-66
2023/04/18 01:21:30;;;;;;;5.60;4.73;;;12.50;88.80;;;;;;5006279;28;20566;-66
2023/04/18 01:24:03;;;;;;;7.37;5.30;;;12.50;88.60;;;;;;5020791;28;20441;-68
2023/04/18 01:26:32;;;;;;;5.20;4.70;;;12.50;88.90;;;;;;5021489;28;20479;-67
2023/04/18 01:29:05;;;;;;;5.40;4.90;;;12.50;89.10;;;;;;5005197;28;20437;-67
2023/04/18 01:31:35;;;;;;;4.83;3.93;;;12.50;89.60;;;;;;5004041;28;20948;-68
2023/04/18 01:34:04;;;;;;;5.13;4.63;;;12.50;89.90;;;;;;5016228;28;20876;-66
2023/04/18 01:36:33;;;;;;;4.57;4.17;;;12.50;90.00;;;;;;5021318;28;20484;-67
2023/04/18 01:39:02;;;;;;;4.40;4.00;;;12.50;90.00;;;;;;5002103;28;20456;-68
2023/04/18 01:41:32;;;;;;;4.30;3.90;;;12.50;90.10;;;;;;5001599;28;20477;-68
2023/04/18 01:44:01;;;;;;;4.30;3.90;;;12.50;90.10;;;;;;5005497;28;20976;-66
2023/04/18 01:46:30;;;;;;;4.07;3.67;;;12.50;90.20;;;;;;5020328;28;20539;-67
2023/04/18 01:49:01;;;;;;;5.87;5.20;;;12.50;90.20;;;;;;5020548;28;20453;-66
2023/04/18 01:51:30;;;;;;;5.30;4.80;;;12.50;90.00;;;;;;5004334;28;20801;-67
2023/04/18 01:53:58;;;;;;;5.70;4.30;;;12.50;90.00;;;;;;4994604;28;21002;-69
2023/04/18 01:56:27;;;;;;;5.70;5.13;;;12.50;90.20;;;;;;5023446;28;20460;-67
2023/04/18 01:58:59;;;;;;;5.30;4.80;;;12.50;90.10;;;;;;5016156;28;20937;-67
2023/04/18 02:01:28;;;;;;;4.50;4.10;;;12.50;90.00;;;;;;5022446;28;20460;-67
2023/04/18 02:03:59;;;;;;;6.93;5.60;;;12.50;89.70;;;;;;5024219;28;20500;-67
2023/04/18 02:06:27;;;;;;;4.83;4.33;;;12.50;89.50;;;;;;5024086;28;20463;-67
2023/04/18 02:08:55;;;;;;;4.87;4.37;;;12.50;89.60;;;;;;5008038;28;20477;-67
2023/04/18 02:11:25;;;;;;;6.13;5.53;;;12.50;89.10;;;;;;5023106;28;20991;-67
2023/04/18 02:13:53;;;;;;;5.33;4.83;;;12.50;89.20;;;;;;5024835;28;20445;-68
2023/04/18 02:16:23;;;;;;;4.80;4.30;;;12.50;89.10;;;;;;5008717;28;20440;-68
2023/04/18 02:18:52;;;;;;;5.23;3.90;;;12.50;89.80;;;;;;5016555;28;20828;-67
2023/04/18 02:21:21;;;;;;;6.30;5.23;;;12.50;89.90;;;;;;5022965;28;20469;-67
2023/04/18 02:23:49;;;;;;;5.33;4.83;;;12.50;89.80;;;;;;5024795;28;20444;-68
2023/04/18 02:26:22;;;;;;;4.90;4.40;;;12.50;89.40;;;;;;5000230;28;20450;-66
2023/04/18 02:28:50;;;;;;;5.10;4.60;;;12.50;89.70;;;;;;5015759;28;20552;-65
2023/04/18 02:31:18;;;;;;;4.90;4.40;;;12.50;90.00;;;;;;5023220;28;20457;-67
2023/04/18 02:33:48;;;;;;;5.10;4.60;;;12.50;90.10;;;;;;5019673;28;20448;-67
2023/04/18 02:36:16;;;;;;;6.30;5.30;;;12.40;90.00;;;;;;5007682;28;20445;-68
2023/04/18 02:38:45;;;;;;;6.73;5.07;;;12.50;89.50;;;;;;5024032;28;20453;-67
2023/04/18 02:41:16;;;;;;;4.97;4.10;;;12.50;89.60;;;;;;5005987;28;20503;-66
2023/04/18 02:43:44;;;;;;;5.57;5.07;;;12.40;89.70;;;;;;5007144;28;20482;-66
2023/04/18 02:46:16;;;;;;;4.93;4.43;;;12.50;89.30;;;;;;5022145;28;20468;-67
2023/04/18 02:48:49;;;;;;;6.17;5.63;;;12.40;89.60;;;;;;5022061;28;20442;-67
2023/04/18 02:51:19;;;;;;;8.37;4.73;;;12.40;89.40;;;;;;5005215;28;20489;-66
2023/04/18 02:53:48;;;;;;;5.20;4.70;;;12.40;89.60;;;;;;5020487;28;20450;-67
2023/04/18 02:56:17;;;;;;;5.20;4.70;;;12.40;90.00;;;;;;5018798;28;20481;-67
2023/04/18 02:59:04;;;;;;;5.63;5.13;;;12.40;89.60;;;;;;5008947;28;21053;-66
2023/04/18 03:01:53;;;;;;;4.47;4.07;;;12.40;89.70;;;;;;5000819;28;21007;-66
2023/04/18 03:04:24;;;;;;;6.43;4.77;;;12.40;89.70;;;;;;5014406;28;20942;-69
2023/04/18 03:06:59;;;;;;;4.57;4.17;;;12.40;89.90;;;;;;5014449;28;20586;-68
2023/04/18 03:09:32;;;;;;;5.33;4.83;;;12.40;89.40;;;;;;5022862;28;20542;-68
2023/04/18 03:12:06;;;;;;;5.67;5.10;;;12.40;89.70;;;;;;5005137;28;20491;-67
2023/04/18 03:14:36;;;;;;;4.90;4.03;;;12.40;89.30;;;;;;5025823;28;20451;-67
2023/04/18 03:17:05;;;;;;;5.43;4.67;;;12.40;89.00;;;;;;5022314;28;20476;-67
2023/04/18 03:19:42;;;;;;;4.80;4.30;;;12.40;89.30;;;;;;5020746;28;20476;-65
2023/04/18 03:22:13;;;;;;;5.87;4.10;;;12.40;89.50;;;;;;5005905;28;20522;-68
2023/04/18 03:24:49;;;;;;;4.70;4.30;;;12.40;89.50;;;;;;5025590;28;20438;-67
2023/04/18 03:27:19;;;;;;;5.80;4.13;;;12.40;89.40;;;;;;5021915;28;20484;-68
2023/04/18 03:29:48;;;;;;;5.03;4.63;;;12.40;89.60;;;;;;5024846;28;20542;-67
2023/04/18 03:32:17;;;;;;;4.73;4.30;;;12.40;89.40;;;;;;5023010;28;20484;-68
2023/04/18 03:34:47;;;;;;;6.17;5.03;;;12.40;89.50;;;;;;5003397;28;20444;-65
2023/04/18 03:37:15;;;;;;;6.23;5.43;;;12.40;89.10;;;;;;5025047;28;20471;-67
2023/04/18 03:39:49;;;;;;;5.10;4.53;;;12.40;89.00;;;;;;5010192;28;20562;-67
2023/04/18 03:42:18;;;;;;;5.80;5.00;;;12.40;89.30;;;;;;5024410;28;20476;-68
2023/04/18 03:44:46;;;;;;;5.40;4.90;;;12.40;89.40;;;;;;5009269;28;20500;-67
2023/04/18 03:47:15;;;;;;;5.67;4.83;;;12.30;89.10;;;;;;5024683;28;20483;-65
2023/04/18 03:49:49;;;;;;;5.43;4.90;;;12.30;89.10;;;;;;5025191;28;21053;-66
2023/04/18 03:52:19;;;;;;;5.37;4.77;;;12.30;88.80;;;;;;5019268;28;20479;-67
2023/04/18 03:54:47;;;;;;;4.57;4.17;;;12.30;88.90;;;;;;5025398;28;20453;-68
2023/04/18 03:57:19;;;;;;;4.77;4.27;;;12.30;88.90;;;;;;5022918;28;20572;-67
2023/04/18 03:59:47;;;;;;;4.80;4.30;;;12.30;89.50;;;;;;5025415;28;20457;-65
2023/04/18 04:02:16;;;;;;;6.17;4.80;;;12.40;89.40;;;;;;5023254;28;20488;-66
2023/04/18 04:04:44;;;;;;;5.23;4.53;;;12.30;89.10;;;;;;5007676;28;20450;-68
2023/04/18 04:07:15;;;;;;;5.40;4.87;;;12.30;89.20;;;;;;5022769;28;20937;-67
2023/04/18 04:09:43;;;;;;;4.97;4.57;;;12.30;89.30;;;;;;5006455;28;20475;-67
2023/04/18 04:12:11;;;;;;;5.47;4.83;;;12.30;88.90;;;;;;5009083;28;20558;-66
2023/04/18 04:14:41;;;;;;;5.40;4.83;;;12.30;89.10;;;;;;5023739;28;20444;-67
2023/04/18 04:17:10;;;;;;;4.80;4.10;;;12.30;89.10;;;;;;5014985;28;20477;-67
2023/04/18 04:19:39;;;;;;;6.97;5.37;;;12.30;89.40;;;;;;5005558;28;20797;-67
2023/04/18 04:22:13;;;;;;;4.33;3.93;;;12.30;89.20;;;;;;5022031;28;20568;-67
2023/04/18 04:24:45;;;;;;;5.50;4.50;;;12.30;89.40;;;;;;5003867;28;20535;-67
2023/04/18 04:27:17;;;;;;;5.43;4.90;;;12.30;89.30;;;;;;5003979;28;20473;-66
2023/04/18 04:29:48;;;;;;;6.40;5.40;;;12.30;89.20;;;;;;5006842;28;20881;-68
2023/04/18 04:32:19;;;;;;;5.37;4.87;;;12.30;88.90;;;;;;5005629;28;20477;-66
2023/04/18 04:34:48;;;;;;;5.57;4.70;;;12.30;89.00;;;;;;5022403;28;20512;-66
2023/04/18 04:37:18;;;;;;;5.37;4.67;;;12.30;89.00;;;;;;4998988;28;20476;-65
2023/04/18 04:40:01;;;;;;;6.70;4.50;;;12.30;89.00;;;;;;5019418;28;20464;-66
2023/04/18 04:42:30;;;;;;;5.77;4.70;;;12.30;89.00;;;;;;5002282;28;20484;-67
2023/04/18 04:45:09;;;;;;;4.90;4.23;;;12.30;89.00;;;;;;5024601;28;20956;-67
2023/04/18 04:47:37;;;;;;;5.70;4.27;;;12.30;89.30;;;;;;5022219;28;20525;-65
2023/04/18 04:50:13;;;;;;;6.10;4.90;;;12.20;89.10;;;;;;5002688;28;20474;-68
2023/04/18 04:52:43;;;;;;;4.93;4.10;;;12.30;89.10;;;;;;5021333;28;20447;-67
2023/04/18 04:55:12;;;;;;;4.90;4.37;;;12.20;89.10;;;;;;5001155;28;20780;-65
2023/04/18 04:57:42;;;;;;;5.20;4.70;;;12.20;88.90;;;;;;5021698;28;20447;-66
2023/04/18 05:00:25;;;;;;;5.83;5.00;;;12.20;88.90;;;;;;5010962;28;20470;-66
2023/04/18 05:02:55;;;;;;;5.17;4.00;;;12.30;89.30;;;;;;5017839;28;20537;-66
2023/04/18 05:05:26;;;;;;;6.10;4.90;;;12.20;89.00;;;;;;5021519;28;20455;-66
2023/04/18 05:07:56;;;;;;;4.57;4.13;;;12.20;89.10;;;;;;5023383;28;21067;-67
2023/04/18 05:10:24;;;;;;;4.80;4.30;;;12.20;89.00;;;;;;4998410;28;20466;-66
2023/04/18 05:12:53;;;;;;;7.13;4.90;;;12.20;88.80;;;;;;5021359;28;20544;-67
2023/04/18 05:15:21;;;;;;;5.30;4.80;;;12.20;88.80;;;;;;5023098;28;20964;-67
2023/04/18 05:17:50;;;;;;;5.20;4.70;;;12.20;89.00;;;;;;4997709;28;20455;-69
2023/04/18 05:20:18;;;;;;;4.60;3.93;;;12.20;89.20;;;;;;5007192;28;20539;-66
2023/04/18 05:22:47;;;;;;;5.30;4.60;;;12.20;88.90;;;;;;5022991;28;20473;-66
2023/04/18 05:25:17;;;;;;;5.30;4.80;;;12.20;89.00;;;;;;5023164;28;20555;-65
2023/04/18 05:27:46;;;;;;;5.20;4.27;;;12.20;88.90;;;;;;5020150;28;20535;-66
2023/04/18 05:30:14;;;;;;;5.87;5.27;;;12.20;88.70;;;;;;4998564;28;20539;-65
2023/04/18 05:32:43;;;;;;;5.10;4.10;;;12.20;88.80;;;;;;5020457;28;20447;-66
2023/04/18 05:35:12;;;;;;;5.00;4.50;;;12.20;88.90;;;;;;4999808;28;20805;-66
2023/04/18 05:37:40;;;;;;;4.70;4.30;;;12.20;88.80;;;;;;5003192;28;21035;-66
2023/04/18 05:40:10;;;;;;;5.43;4.90;;;12.20;88.90;;;;;;5000417;28;20460;-66
2023/04/18 05:42:41;;;;;;;5.27;4.30;;;12.20;88.90;;;;;;5004449;28;20457;-67
2023/04/18 05:45:10;;;;;;;5.73;4.90;;;12.20;88.90;;;;;;5023127;28;20575;-67
2023/04/18 05:47:38;;;;;;;5.00;4.50;;;12.20;88.90;;;;;;5019653;28;20921;-67
2023/04/18 05:50:08;;;;;;;5.27;4.50;;;12.20;88.80;;;;;;5022114;28;20460;-65
2023/04/18 05:52:37;;;;;;;4.50;4.10;;;12.20;88.90;;;;;;5004391;28;20538;-66
2023/04/18 05:55:06;;;;;;;5.70;4.70;;;12.20;88.90;;;;;;5022757;28;20454;-66
2023/04/18 05:57:35;;;;;;;6.20;5.23;;;12.20;88.90;;;;;;5012372;28;20507;-66
2023/04/18 06:00:08;;;;;;;5.60;5.10;;;12.20;88.90;;;;;;5016283;28;20499;-66
2023/04/18 06:02:39;;;;;;;4.50;3.93;;;12.20;88.80;;;;;;5005983;28;20978;-66
2023/04/18 06:05:09;;;;;;;5.03;4.53;;;12.20;89.00;;;;;;5007516;28;20975;-64
2023/04/18 06:07:38;;;;;;;5.10;4.60;;;12.10;88.90;;;;;;5006573;28;20468;-67
2023/04/18 06:10:10;;;;;;;5.57;5.00;;;12.10;89.00;;;;;;4999766;28;20448;-66
2023/04/18 06:12:38;;;;;;;5.77;4.93;;;12.10;89.00;;;;;;5021056;28;20503;-67
2023/04/18 06:15:09;;;;;;;5.17;4.67;;;12.10;89.00;;;;;;5022227;28;20439;-67
2023/04/18 06:17:38;;;;;;;5.40;4.57;;;12.10;89.00;;;;;;5019970;28;20459;-66
2023/04/18 06:20:07;;;;;;;6.50;4.77;;;12.20;88.40;;;;;;5000256;28;20981;-66
2023/04/18 06:22:36;;;;;;;5.60;4.70;;;12.10;88.80;;;;;;5004079;28;20503;-66
2023/04/18 06:25:07;;;;;;;5.53;4.73;;;12.10;88.60;;;;;;5001787;28;20468;-65
2023/04/18 06:27:36;;;;;;;5.10;4.60;;;12.10;88.80;;;;;;5018826;28;20474;-67
2023/04/18 06:30:06;;;;;;;5.83;5.07;;;12.10;88.80;;;;;;5021668;28;20475;-67
2023/04/18 06:32:36;;;;;;;5.93;4.47;;;12.10;88.90;;;;;;4998143;28;20984;-67
2023/04/18 06:35:06;;;;;;;4.80;4.30;;;12.10;88.80;;;;;;5004445;28;20459;-67
2023/04/18 06:37:34;;;;;;;6.10;4.90;;;12.10;88.70;;;;;;5002789;28;20473;-65
2023/04/18 06:40:03;;;;;;;5.77;5.27;;;12.10;88.50;;;;;;5020612;28;20468;-66
2023/04/18 06:42:31;;;;;;;5.93;4.17;;;12.10;88.50;;;;;;5020916;28;20486;-66
2023/04/18 06:45:00;;;;;;;5.73;5.10;;;12.10;88.60;;;;;;5022860;28;20481;-67
2023/04/18 06:47:29;;;;;;;5.10;4.60;;;12.10;88.40;;;;;;5007938;28;20895;-67
2023/04/18 06:49:59;;;;;;;5.53;4.93;;;12.10;88.40;;;;;;5007954;28;20491;-65
2023/04/18 06:52:27;;;;;;;6.23;5.23;;;12.20;88.40;;;;;;5024954;28;21099;-65
2023/04/18 06:54:55;;;;;;;6.87;4.80;;;12.20;88.30;;;;;;5022696;28;20606;-66
2023/04/18 06:57:24;;;;;;;5.30;4.80;;;12.10;88.20;;;;;;5022798;28;20518;-65
2023/04/18 06:59:54;;;;;;;4.93;4.43;;;12.20;88.30;;;;;;5011480;28;20954;-65
2023/04/18 07:02:23;;;;;;;8.80;5.53;;;12.10;88.30;;;;;;5025664;28;20456;-65
2023/04/18 07:04:52;;;;;;;7.03;6.33;;;12.10;87.80;;;;;;5005736;28;20506;-66
2023/04/18 07:07:21;;;;;;;4.53;4.13;;;12.10;87.90;;;;;;5025733;28;20466;-68
2023/04/18 07:09:51;;;;;;;4.60;4.10;;;12.20;88.50;;;;;;5019860;28;20471;-66
2023/04/18 07:12:20;;;;;;;4.30;3.80;;;12.20;88.60;;;;;;5024409;28;20507;-65
2023/04/18 07:14:48;;;;;;;4.60;4.20;;;12.20;88.70;;;;;;5023136;28;20451;-66
2023/04/18 07:17:16;;;;;;;5.77;4.00;;;12.20;88.60;;;;;;5007258;28;20505;-66
2023/04/18 07:19:45;;;;;;;4.20;3.80;;;12.20;88.60;;;;;;5008312;28;20829;-65
2023/04/18 07:22:14;;;;;;;5.10;4.60;;;12.20;88.40;;;;;;5016486;28;20483;-66
2023/04/18 07:24:43;;;;;;;4.70;3.80;;;12.20;88.40;;;;;;5002100;28;20497;-65
2023/04/18 07:27:12;;;;;;;5.07;4.60;;;12.20;88.50;;;;;;5001708;28;20671;-66
2023/04/18 07:29:40;;;;;;;4.77;4.23;;;12.20;88.60;;;;;;5017654;28;20473;-66
2023/04/18 07:32:09;;;;;;;5.17;4.20;;;12.20;88.50;;;;;;5029145;28;20467;-66
2023/04/18 07:34:39;;;;;;;4.60;4.20;;;12.20;88.50;;;;;;5001189;28;20448;-67
2023/04/18 07:37:07;;;;;;;5.27;4.30;;;12.20;88.60;;;;;;5008469;28;20928;-65
2023/04/18 07:39:36;;;;;;;5.10;4.10;;;12.20;88.40;;;;;;5024959;28;20494;-66
2023/04/18 07:42:06;;;;;;;6.33;4.20;;;12.20;88.60;;;;;;5024501;28;21067;-66
2023/04/18 07:44:35;;;;;;;7.40;4.97;;;12.20;88.50;;;;;;5024234;28;20456;-65
2023/04/18 07:47:04;;;;;;;4.27;3.87;;;12.20;88.40;;;;;;5003854;28;20472;-66
2023/04/18 07:49:33;;;;;;;5.20;4.57;;;12.20;88.40;;;;;;5019494;28;20856;-66
2023/04/18 07:52:02;;;;;;;5.00;4.43;;;12.20;88.40;;;;;;5021466;28;20575;-66
2023/04/18 07:54:31;;;;;;;5.50;4.70;;;12.30;88.50;;;;;;5023865;28;20535;-66
2023/04/18 07:56:59;;;;;;;6.47;5.17;;;12.30;88.40;;;;;;5006815;28;20465;-66
2023/04/18 07:59:31;;;;;;;4.33;3.90;;;12.30;88.50;;;;;;5021132;28;20443;-67
2023/04/18 08:01:59;;;;;;;5.03;4.53;;;12.30;88.40;;;;;;5017530;28;20457;-66
2023/04/18 08:04:28;;;;;;;5.17;4.43;;;12.30;88.40;;;;;;4998931;28;20847;-65
2023/04/18 08:06:57;;;;;;;4.80;4.30;;;12.30;88.50;;;;;;5023969;28;20530;-65
2023/04/18 08:09:26;;;;;;;4.87;4.37;;;12.30;88.40;;;;;;5025406;28;20890;-65
2023/04/18 08:11:56;;;;;;;4.93;4.03;;;12.30;88.40;;;;;;5004359;28;20495;-66
2023/04/18 08:14:25;;;;;;;6.93;4.57;;;12.30;88.40;;;;;;5014869;28;20443;-64
2023/04/18 08:16:55;;;;;;;5.50;4.97;;;12.30;88.30;;;;;;5015845;28;20563;-66
2023/04/18 08:19:23;;;;;;;5.53;4.67;;;12.30;88.40;;;;;;5022751;28;20969;-65
2023/04/18 08:21:52;;;;;;;5.27;4.50;;;12.30;88.30;;;;;;4998917;28;20504;-66
2023/04/18 08:24:20;;;;;;;5.73;4.90;;;12.30;88.30;;;;;;5008547;28;20534;-66
2023/04/18 08:26:48;;;;;;;5.13;4.63;;;12.30;88.20;;;;;;5003482;28;20473;-65
2023/04/18 08:29:17;;;;;;;5.13;4.63;;;12.30;88.30;;;;;;5003404;28;20428;-66
2023/04/18 08:31:45;;;;;;;5.20;4.70;;;12.30;88.40;;;;;;5023607;28;20840;-65
2023/04/18 08:34:15;;;;;;;5.33;4.83;;;12.30;88.30;;;;;;5006680;28;20480;-66
2023/04/18 08:36:44;;;;;;;4.60;4.20;;;12.30;88.20;;;;;;5022889;28;20485;-65
2023/04/18 08:39:13;;;;;;;4.77;4.30;;;12.30;88.20;;;;;;5020036;28;20453;-65
2023/04/18 08:41:43;;;;;;;4.33;3.87;;;12.30;88.20;;;;;;5019294;28;20491;-66
2023/04/18 08:44:12;;;;;;;4.80;4.20;;;12.30;88.40;;;;;;5005698;28;20448;-66
2023/04/18 08:46:41;;;;;;;5.70;5.10;;;12.30;88.40;;;;;;5013321;28;20479;-66
2023/04/18 08:49:09;;;;;;;4.30;3.87;;;12.30;88.40;;;;;;5013775;28;20449;-65
2023/04/18 08:51:42;;;;;;;5.00;4.50;;;12.30;88.30;;;;;;5010702;28;20472;-65
2023/04/18 08:54:11;;;;;;;5.07;4.57;;;12.30;88.20;;;;;;5010180;28;20446;-64
2023/04/18 08:56:41;;;;;;;4.83;4.33;;;12.30;88.20;;;;;;4997863;28;20477;-65
2023/04/18 08:59:10;;;;;;;6.47;5.40;;;12.30;88.20;;;;;;5003521;28;20439;-74
2023/04/18 09:01:55;;;;;;;4.60;4.20;;;12.30;88.20;;;;;;5006441;28;20480;-73
2023/04/18 09:04:35;;;;;;;5.37;4.97;;;12.30;88.40;;;;;;5001679;28;21104;-73
2023/04/18 09:07:06;;;;;;;4.83;4.33;;;12.30;88.10;;;;;;5005621;28;20582;-73
2023/04/18 09:09:42;;;;;;;5.40;4.50;;;12.30;88.20;;;;;;5006385;28;20507;-72
2023/04/18 09:12:14;;;;;;;4.67;4.20;;;12.20;87.90;;;;;;5022385;28;20862;-74
2023/04/18 09:14:44;;;;;;;5.63;5.03;;;12.30;88.20;;;;;;5023687;28;20530;-73
2023/04/18 09:17:15;;;;;;;5.03;4.30;;;12.20;87.90;;;;;;5003973;28;20479;-73
2023/04/18 09:19:49;;;;;;;4.67;4.20;;;12.20;88.00;;;;;;5013624;28;20493;-74
2023/04/18 09:22:19;;;;;;;7.37;4.63;;;12.20;88.10;;;;;;5009086;28;20471;-74
2023/04/18 09:24:54;;;;;;;4.87;4.37;;;12.20;88.30;;;;;;5001695;28;20455;-72
2023/04/18 09:27:23;;;;;;;4.93;4.30;;;12.20;87.80;;;;;;5006270;28;20825;-74
2023/04/18 09:29:54;;;;;;;4.90;4.17;;;12.20;88.10;;;;;;5021098;28;20560;-74
2023/04/18 09:32:28;;;;;;;4.13;3.63;;;12.20;88.00;;;;;;5003458;28;20577;-73
2023/04/18 09:35:00;;;;;;;5.10;4.47;;;12.20;88.30;;;;;;5007333;28;20469;-74
2023/04/18 09:37:33;;;;;;;5.07;4.57;;;12.20;89.30;;;;;;5022577;28;20479;-75
2023/04/18 09:40:16;;;;;;;5.10;4.10;;;12.20;88.10;;;;;;5005372;28;20497;-72
2023/04/18 09:42:46;;;;;;;4.90;4.23;;;12.20;88.10;;;;;;5004729;28;20555;-75
2023/04/18 09:45:15;;;;;;;4.67;4.27;;;12.20;88.20;;;;;;5018761;28;20453;-75
2023/04/18 09:47:43;;;;;;;5.80;5.20;;;12.20;88.40;;;;;;5005451;28;20479;-74
2023/04/18 09:50:12;;;;;;;5.87;4.50;;;12.20;88.10;;;;;;5003145;28;20662;-74
2023/04/18 09:52:43;;;;;;;5.40;4.20;;;12.20;88.20;;;;;;5007491;28;20479;-73
2023/04/18 09:55:13;;;;;;;5.80;4.37;;;12.20;87.90;;;;;;4992190;28;20445;-73
2023/04/18 09:57:44;;;;;;;5.60;4.57;;;12.10;88.20;;;;;;5004122;28;20521;-74
2023/04/18 10:00:19;;;;;;;4.30;3.80;;;12.10;88.30;;;;;;5022822;28;20542;-73
2023/04/18 10:02:54;;;;;;;4.23;3.83;;;12.10;88.40;;;;;;5003756;28;20472;-74
2023/04/18 10:05:25;;;;;;;4.90;4.20;;;12.10;88.20;;;;;;5005016;28;20440;-74
2023/04/18 10:07:56;;;;;;;5.13;4.37;;;12.20;88.40;;;;;;5026346;28;20468;-74
2023/04/18 10:10:25;;;;;;;4.73;4.07;;;12.20;88.30;;;;;;5019151;28;21090;-73
2023/04/18 10:12:54;;;;;;;4.80;4.30;;;12.10;87.90;;;;;;5014030;28;20444;-73
2023/04/18 10:15:25;;;;;;;5.87;4.87;;;12.10;88.20;;;;;;5008345;28;20455;-73
2023/04/18 10:17:55;;;;;;;4.57;4.17;;;12.20;88.40;;;;;;5003812;28;20457;-72
2023/04/18 10:20:28;;;;;;;4.30;3.90;;;12.10;88.30;;;;;;5008804;28;20469;-74
2023/04/18 10:22:59;;;;;;;5.10;4.60;;;12.10;88.30;;;;;;5004494;28;20867;-73
2023/04/18 10:25:50;;;;;;;4.20;3.80;;;12.10;88.30;;;;;;5002334;28;20450;-72
2023/04/18 10:28:20;;;;;;;4.87;4.37;;;12.10;88.30;;;;;;5001148;28;20445;-74
2023/04/18 10:30:56;;;;;;;3.90;3.60;;;12.10;88.20;;;;;;5004001;28;20495;-73
2023/04/18 10:33:27;;;;;;;4.63;4.10;;;12.10;87.90;;;;;;5007511;28;20497;-73
2023/04/18 10:36:02;;;;;;;6.80;4.00;;;12.10;88.30;;;;;;5019964;28;20463;-74
2023/04/18 10:38:32;;;;;;;4.47;4.07;;;12.10;88.10;;;;;;5015614;28;20562;-73
2023/04/18 10:41:14;;;;;;;5.40;4.90;;;12.10;88.20;;;;;;5020924;28;20461;-73
2023/04/18 10:44:11;;;;;;;4.50;4.10;;;12.20;88.30;;;;;;5023399;28;20447;-74
2023/04/18 10:46:42;;;;;;;4.37;3.57;;;12.20;88.30;;;;;;5006123;28;20485;-72
2023/04/18 10:49:14;;;;;;;4.37;3.97;;;12.20;88.50;;;;;;5001508;28;20824;-74
2023/04/18 10:51:44;;;;;;;4.73;3.80;;;12.20;88.40;;;;;;5013499;28;20467;-65
2023/04/18 10:54:20;;;;;;;4.00;3.43;;;12.20;88.30;;;;;;5019791;28;20485;-65
2023/04/18 10:56:53;;;;;;;5.10;4.20;;;12.20;88.30;;;;;;5001880;28;20498;-65
2023/04/18 10:59:23;;;;;;;5.30;4.80;;;12.20;88.40;;;;;;5017245;28;20443;-66
2023/04/18 11:01:56;;;;;;;5.37;4.13;;;12.20;88.40;;;;;;5020760;28;21303;-66
2023/04/18 11:04:25;;;;;;;4.80;3.80;;;12.20;88.50;;;;;;5003382;28;20971;-65
2023/04/18 11:06:56;;;;;;;4.93;3.53;;;12.20;88.50;;;;;;5020826;28;20486;-66
2023/04/18 11:09:25;;;;;;;4.67;4.20;;;12.20;88.50;;;;;;5023399;28;20524;-64
2023/04/18 11:12:05;;;;;;;4.73;4.30;;;12.20;88.60;;;;;;5014380;28;20546;-65
2023/04/18 11:14:40;;;;;;;5.27;4.13;;;12.20;88.60;;;;;;5001700;28;20436;-65
2023/04/18 11:17:19;;;;;;;4.47;4.03;;;12.20;88.50;;;;;;5021728;28;20892;-66
2023/04/18 11:19:48;;;;;;;4.40;3.67;;;12.20;88.50;;;;;;5022880;28;20487;-67
2023/04/18 11:22:17;;;;;;;4.30;3.90;;;12.20;88.40;;;;;;5009363;28;20877;-66
2023/04/18 11:24:47;;;;;;;5.67;3.93;;;12.20;88.60;;;;;;5021176;28;20437;-67
2023/04/18 11:27:16;;;;;;;4.37;3.83;;;12.20;88.40;;;;;;5001036;28;20472;-66
2023/04/18 11:29:44;;;;;;;4.10;3.60;;;12.20;88.40;;;;;;5023945;28;20780;-67
2023/04/18 11:32:13;;;;;;;4.67;4.27;;;12.20;88.50;;;;;;5021153;28;20916;-65
2023/04/18 11:34:41;;;;;;;4.67;4.17;;;12.20;88.60;;;;;;5023963;28;20448;-65
2023/04/18 11:37:10;;;;;;;4.40;3.73;;;12.20;88.40;;;;;;5008744;28;20476;-65
2023/04/18 11:39:43;;;;;;;4.77;4.30;;;12.20;88.50;;;;;;5021796;28;20552;-65
2023/04/18 11:42:13;;;;;;;5.13;4.13;;;12.20;88.40;;;;;;5008641;28;20567;-66
2023/04/18 11:44:46;;;;;;;5.20;4.07;;;12.20;88.50;;;;;;5007114;28;20449;-65
2023/04/18 11:47:25;;;;;;;6.17;4.27;;;12.20;88.30;;;;;;5014632;28;20533;-66
2023/04/18 11:49:58;;;;;;;4.50;3.90;;;12.20;88.40;;;;;;5010975;28;20471;-65
2023/04/18 11:52:28;;;;;;;4.57;4.07;;;12.20;88.50;;;;;;5016388;28;21029;-65
2023/04/18 11:55:11;;;;;;;5.30;4.43;;;12.20;88.40;;;;;;4995927;28;20456;-66
2023/04/18 11:57:41;;;;;;;5.53;4.73;;;12.20;88.50;;;;;;5010666;28;20533;-67
2023/04/18 12:00:12;;;;;;;4.87;4.37;;;12.20;88.50;;;;;;5008048;28;20465;-66
2023/04/18 12:02:42;;;;;;;4.30;3.90;;;12.30;88.60;;;;;;5015213;28;20523;-66
2023/04/18 12:05:13;;;;;;;5.20;4.43;;;12.30;88.70;;;;;;5008482;28;20443;-65
2023/04/18 12:07:44;;;;;;;4.47;4.07;;;12.30;88.70;;;;;;5023486;28;20508;-66
2023/04/18 12:10:25;;;;;;;5.90;4.93;;;12.30;88.60;;;;;;5021643;28;20991;-66
2023/04/18 12:12:57;;;;;;;5.30;4.07;;;12.30;88.60;;;;;;5001051;28;20979;-65
2023/04/18 12:15:27;;;;;;;4.77;4.27;;;12.30;88.70;;;;;;5024598;28;20444;-66
2023/04/18 12:18:00;;;;;;;4.40;4.00;;;12.30;88.50;;;;;;5023095;28;20452;-66
2023/04/18 12:20:36;;;;;;;4.43;4.03;;;12.30;88.40;;;;;;5008096;28;20701;-66
2023/04/18 12:23:06;;;;;;;4.70;4.30;;;12.30;88.60;;;;;;5024070;28;20439;-65
2023/04/18 12:25:35;;;;;;;4.63;3.63;;;12.30;88.50;;;;;;5024249;28;20435;-66
2023/04/18 12:28:15;;;;;;;5.77;4.50;;;12.30;88.60;;;;;;5022974;28;20479;-66
2023/04/18 12:30:44;;;;;;;5.07;3.73;;;12.30;88.60;;;;;;5023203;28;20503;-65
2023/04/18 12:33:12;;;;;;;4.37;3.97;;;12.30;88.60;;;;;;5015936;28;20440;-66
2023/04/18 12:35:41;;;;;;;4.50;4.10;;;12.30;88.60;;;;;;5008607;28;20436;-65
2023/04/18 12:38:09;;;;;;;4.63;4.10;;;12.30;88.40;;;;;;5024165;28;20428;-65
2023/04/18 12:40:39;;;;;;;4.97;4.47;;;12.30;88.60;;;;;;5022796;28;20491;-66
2023/04/18 12:43:10;;;;;;;6.40;4.70;;;12.30;88.70;;;;;;5001299;28;20456;-67
2023/04/18 12:45:38;;;;;;;5.13;4.37;;;12.30;88.80;;;;;;5023373;28;20535;-66
2023/04/18 12:48:06;;;;;;;4.37;3.97;;;12.30;88.70;;;;;;4995265;28;20560;-67
2023/04/18 12:50:35;;;;;;;4.30;3.90;;;12.30;88.90;;;;;;4999257;28;20463;-66
2023/04/18 12:53:04;;;;;;;4.60;4.20;;;12.30;88.90;;;;;;5007940;28;20440;-67
2023/04/18 12:55:33;;;;;;;5.23;4.20;;;12.30;88.80;;;;;;5005449;28;20576;-66
2023/04/18 12:58:01;;;;;;;4.47;3.90;;;12.30;88.80;;;;;;4999323;28;20430;-66
2023/04/18 13:00:32;;;;;;;4.40;3.50;;;12.30;88.80;;;;;;5020554;28;20997;-66
2023/04/18 13:03:01;;;;;;;4.23;3.63;;;12.30;88.60;;;;;;5023382;28;20448;-65
2023/04/18 13:05:30;;;;;;;4.50;3.97;;;12.30;88.80;;;;;;5007655;28;20821;-67